Time;durP1;ratioP1;P1;durP2;ratioP2;P2;SDS_P1;SDS_P2;PMS_P1;PMS_P2;Temp;Humidity;BMP_temperature;BMP_pressure;BME280_temperature;BME280_humidity;BME280_pressure;Samples;Min_cycle;Max_cycle;Signal;HPM_P1;HPM_P2
2023/10/01 00:02:18;;;;;;;17.42;6.65;;;;;;;;;;10457870;28;20048;-84
2023/10/01 00:07:19;;;;;;;12.60;5.20;;;;;;;;;;10484615;28;20089;-84
2023/10/01 00:12:23;;;;;;;16.67;7.38;;;;;;;;;;10478485;28;20517;-85
2023/10/01 00:17:24;;;;;;;11.00;5.43;;;;;;;;;;10484451;28;20032;-85
2023/10/01 00:22:25;;;;;;;20.88;7.40;;;;;;;;;;10482833;28;20040;-86
2023/10/01 00:27:26;;;;;;;12.05;5.78;;;;;;;;;;10481172;28;20033;-85
2023/10/01 00:32:30;;;;;;;12.57;5.53;;;;;;;;;;10482061;28;20036;-84
2023/10/01 00:37:32;;;;;;;8.98;4.93;;;;;;;;;;10482322;28;20048;-85
2023/10/01 00:42:34;;;;;;;15.55;6.13;;;;;;;;;;10482987;28;20025;-85
2023/10/01 00:47:40;;;;;;;22.77;7.28;;;;;;;;;;10474301;28;20032;-85
2023/10/01 00:52:41;;;;;;;10.60;4.85;;;;;;;;;;10480393;28;20139;-84
2023/10/01 00:57:43;;;;;;;13.80;7.00;;;;;;;;;;10472659;28;20056;-86
2023/10/01 01:03:00;;;;;;;9.15;6.32;;;;;;;;;;10491734;28;20025;-85
2023/10/01 01:08:21;;;;;;;20.30;8.63;;;;;;;;;;10490700;28;20099;-84
2023/10/01 01:13:24;;;;;;;12.75;6.15;;;;;;;;;;10483059;28;20045;-84
2023/10/01 01:18:26;;;;;;;17.17;7.00;;;;;;;;;;10490598;28;20060;-86
2023/10/01 01:23:30;;;;;;;16.40;7.15;;;;;;;;;;10469430;28;20444;-85
2023/10/01 01:28:31;;;;;;;18.48;8.73;;;;;;;;;;10490803;28;20033;-84
2023/10/01 01:33:40;;;;;;;15.05;7.90;;;;;;;;;;10486103;28;20036;-84
2023/10/01 01:39:09;;;;;;;13.45;7.28;;;;;;;;;;10482911;28;20024;-84
2023/10/01 01:44:14;;;;;;;14.50;6.90;;;;;;;;;;10490310;28;20028;-85
2023/10/01 01:49:19;;;;;;;19.83;9.17;;;;;;;;;;10477586;28;20503;-85
2023/10/01 01:54:20;;;;;;;14.88;7.43;;;;;;;;;;10487401;28;20049;-83
2023/10/01 01:59:27;;;;;;;15.50;7.45;;;;;;;;;;10490123;28;20027;-86
2023/10/01 02:04:28;;;;;;;11.30;5.47;;;;;;;;;;10471095;28;20467;-85
2023/10/01 02:09:30;;;;;;;7.93;5.00;;;;;;;;;;10486694;28;20051;-85
2023/10/01 02:14:33;;;;;;;12.77;6.30;;;;;;;;;;10489423;28;20021;-85
2023/10/01 02:19:35;;;;;;;12.80;5.60;;;;;;;;;;10482952;28;20036;-85
2023/10/01 02:24:45;;;;;;;14.18;8.55;;;;;;;;;;10467002;28;20032;-84
2023/10/01 02:30:12;;;;;;;24.58;10.60;;;;;;;;;;10469377;28;20131;-85
2023/10/01 02:35:34;;;;;;;12.13;5.80;;;;;;;;;;10465775;28;20063;-84
2023/10/01 02:40:36;;;;;;;17.05;8.40;;;;;;;;;;10482269;28;20051;-83
2023/10/01 02:45:41;;;;;;;8.98;5.10;;;;;;;;;;10484360;28;20621;-84
2023/10/01 02:50:45;;;;;;;14.75;8.07;;;;;;;;;;10487204;28;20029;-86
2023/10/01 02:55:47;;;;;;;20.00;10.55;;;;;;;;;;10468117;28;20068;-84
2023/10/01 03:00:53;;;;;;;27.00;12.40;;;;;;;;;;10467534;28;20476;-84
2023/10/01 03:05:54;;;;;;;23.02;12.02;;;;;;;;;;10473222;28;20203;-83
2023/10/01 03:10:56;;;;;;;24.15;10.60;;;;;;;;;;10468631;28;20666;-86
2023/10/01 03:21:18;;;;;;;15.52;8.18;;;;;;;;;;10484153;28;20483;-86
2023/10/01 03:26:19;;;;;;;19.23;10.45;;;;;;;;;;10485554;28;20562;-87
2023/10/01 03:31:20;;;;;;;21.48;11.25;;;;;;;;;;10485189;28;20028;-85
2023/10/01 03:36:32;;;;;;;25.88;13.15;;;;;;;;;;10463307;28;20040;-84
2023/10/01 03:41:52;;;;;;;19.77;10.32;;;;;;;;;;10467093;28;20050;-85
2023/10/01 03:46:55;;;;;;;22.77;12.23;;;;;;;;;;10484596;28;20024;-84
2023/10/01 03:52:02;;;;;;;24.00;11.38;;;;;;;;;;10485116;28;20021;-86
2023/10/01 03:57:03;;;;;;;19.98;9.85;;;;;;;;;;10475297;28;20777;-83
2023/10/01 04:02:27;;;;;;;26.23;12.85;;;;;;;;;;10482941;28;20774;-84
2023/10/01 04:07:40;;;;;;;24.13;11.95;;;;;;;;;;10473722;28;20083;-83
2023/10/01 04:12:44;;;;;;;20.63;10.20;;;;;;;;;;10463405;28;20043;-84
2023/10/01 04:18:09;;;;;;;22.35;12.52;;;;;;;;;;10478036;28;20064;-85
2023/10/01 04:23:20;;;;;;;21.58;12.57;;;;;;;;;;10482324;28;20048;-84
2023/10/01 04:28:21;;;;;;;17.48;9.82;;;;;;;;;;10466607;28;20035;-86
2023/10/01 04:33:24;;;;;;;22.70;11.73;;;;;;;;;;10485103;28;20033;-85
2023/10/01 04:38:29;;;;;;;23.70;12.65;;;;;;;;;;10469694;28;20040;-84
2023/10/01 04:43:41;;;;;;;27.75;13.60;;;;;;;;;;10474471;28;20055;-84
2023/10/01 04:48:42;;;;;;;24.60;13.13;;;;;;;;;;10480687;28;20445;-85
2023/10/01 04:53:47;;;;;;;23.95;12.90;;;;;;;;;;10485321;28;20136;-85
2023/10/01 04:58:52;;;;;;;29.33;12.75;;;;;;;;;;10479817;28;20029;-84
2023/10/01 05:03:56;;;;;;;15.55;8.05;;;;;;;;;;10491110;28;20021;-84
2023/10/01 05:08:58;;;;;;;21.17;11.38;;;;;;;;;;10487388;28;20036;-84
2023/10/01 05:13:59;;;;;;;22.50;11.23;;;;;;;;;;10489922;28;20494;-85
2023/10/01 05:19:09;;;;;;;23.30;12.52;;;;;;;;;;10472919;28;20476;-84
2023/10/01 05:24:11;;;;;;;21.90;11.82;;;;;;;;;;10486015;28;20036;-84
2023/10/01 05:29:20;;;;;;;26.52;15.23;;;;;;;;;;10484451;28;20047;-85
2023/10/01 05:34:21;;;;;;;21.65;13.32;;;;;;;;;;10469147;28;20039;-84
2023/10/01 05:39:23;;;;;;;19.38;10.25;;;;;;;;;;10481682;28;20373;-84
2023/10/01 05:44:26;;;;;;;15.95;8.35;;;;;;;;;;10471310;28;20052;-86
2023/10/01 05:49:27;;;;;;;15.07;8.65;;;;;;;;;;10489373;28;20063;-84
2023/10/01 05:54:50;;;;;;;26.88;12.40;;;;;;;;;;10481646;28;20059;-85
2023/10/01 05:59:56;;;;;;;21.42;11.43;;;;;;;;;;10471327;28;20024;-85
2023/10/01 06:04:57;;;;;;;;;;;;;;;;;;10485975;28;20044;-84
2023/10/01 06:09:58;;;;;;;22.60;13.93;;;;;;;;;;10489759;28;19908;-84
2023/10/01 06:15:11;;;;;;;26.30;15.57;;;;;;;;;;10484095;28;20355;-85
2023/10/01 06:20:26;;;;;;;38.45;19.58;;;;;;;;;;10486550;28;20046;-85
2023/10/01 06:25:44;;;;;;;23.95;12.32;;;;;;;;;;10489173;28;20646;-84
2023/10/01 06:30:45;;;;;;;34.38;22.02;;;;;;;;;;10479204;28;20171;-85
2023/10/01 06:36:15;;;;;;;17.67;10.80;;;;;;;;;;10484386;28;20575;-85
2023/10/01 06:41:13;;;;;;;22.30;12.23;;;;;;;;;;10473470;28;20400;-86
2023/10/01 06:46:15;;;;;;;24.35;17.38;;;;;;;;;;10463778;28;20032;-86
2023/10/01 06:51:21;;;;;;;43.50;29.92;;;;;;;;;;10483050;28;20070;-86
2023/10/01 06:56:23;;;;;;;17.95;11.80;;;;;;;;;;10483969;28;20514;-83
2023/10/01 07:01:42;;;;;;;19.83;12.30;;;;;;;;;;10491784;28;20035;-84
2023/10/01 07:06:44;;;;;;;17.83;10.38;;;;;;;;;;10469102;28;20059;-83
2023/10/01 07:11:46;;;;;;;21.70;12.27;;;;;;;;;;10486575;28;20032;-83
2023/10/01 07:16:47;;;;;;;22.73;15.40;;;;;;;;;;10485957;28;20090;-84
2023/10/01 07:21:56;;;;;;;25.13;15.40;;;;;;;;;;10477565;28;20826;-83
2023/10/01 07:27:04;;;;;;;19.85;12.57;;;;;;;;;;10476765;28;20028;-85
2023/10/01 07:32:09;;;;;;;23.70;11.38;;;;;;;;;;10485468;28;20040;-87
2023/10/01 07:37:10;;;;;;;25.13;12.90;;;;;;;;;;10484923;28;20047;-85
2023/10/01 07:42:11;;;;;;;21.70;11.98;;;;;;;;;;10452605;28;20117;-86
2023/10/01 07:47:28;;;;;;;17.85;10.77;;;;;;;;;;10478958;28;20093;-84
2023/10/01 07:52:33;;;;;;;24.73;13.90;;;;;;;;;;10475053;28;20028;-84
2023/10/01 07:57:47;;;;;;;24.58;13.85;;;;;;;;;;10461942;28;20060;-84
2023/10/01 08:08:08;;;;;;;22.55;11.73;;;;;;;;;;10471396;28;20464;-86
2023/10/01 08:13:23;;;;;;;27.90;14.43;;;;;;;;;;10457829;28;20035;-88
2023/10/01 08:18:42;;;;;;;28.40;13.68;;;;;;;;;;10452293;28;20032;-89
2023/10/01 08:23:48;;;;;;;27.48;13.68;;;;;;;;;;10466331;28;20108;-86
2023/10/01 08:28:57;;;;;;;24.98;12.55;;;;;;;;;;10485988;28;20041;-87
2023/10/01 08:34:22;;;;;;;19.52;9.70;;;;;;;;;;10482521;28;20032;-88
2023/10/01 08:39:33;;;;;;;22.20;10.40;;;;;;;;;;10483658;28;20044;-90
2023/10/01 08:44:48;;;;;;;22.40;11.23;;;;;;;;;;10459844;28;20480;-85
2023/10/01 08:49:51;;;;;;;23.65;11.75;;;;;;;;;;10466496;28;20514;-89
2023/10/01 08:54:55;;;;;;;19.83;11.18;;;;;;;;;;10465670;28;20102;-88
2023/10/01 08:59:59;;;;;;;20.33;10.60;;;;;;;;;;10473817;28;20075;-88
2023/10/01 09:05:07;;;;;;;17.67;9.15;;;;;;;;;;10458516;28;20491;-88
2023/10/01 09:10:15;;;;;;;18.55;8.70;;;;;;;;;;10474530;28;20020;-87
2023/10/01 09:15:27;;;;;;;21.75;9.27;;;;;;;;;;10464512;28;20408;-86
2023/10/01 09:26:02;;;;;;;20.80;9.50;;;;;;;;;;10481377;28;20053;-88
2023/10/01 09:31:26;;;;;;;20.73;9.55;;;;;;;;;;10486677;28;20039;-89
2023/10/01 09:36:45;;;;;;;21.55;10.35;;;;;;;;;;10475547;28;20560;-87
2023/10/01 09:41:47;;;;;;;21.38;8.57;;;;;;;;;;10466979;28;20075;-85
2023/10/01 09:46:49;;;;;;;16.05;8.00;;;;;;;;;;10469312;28;20040;-90
2023/10/01 09:51:53;;;;;;;24.33;10.30;;;;;;;;;;10467890;28;20465;-87
2023/10/01 09:56:54;;;;;;;20.48;8.20;;;;;;;;;;10467748;28;20534;-88
2023/10/01 10:02:02;;;;;;;21.65;8.38;;;;;;;;;;10475123;28;20020;-84
2023/10/01 10:07:04;;;;;;;16.60;7.85;;;;;;;;;;10503740;28;20671;-85
2023/10/01 10:12:07;;;;;;;15.60;7.22;;;;;;;;;;10486940;28;20033;-84
2023/10/01 10:22:18;;;;;;;17.10;7.25;;;;;;;;;;10486119;28;20047;-87
2023/10/01 10:27:33;;;;;;;16.27;6.72;;;;;;;;;;10476943;28;20110;-88
2023/10/01 10:32:44;;;;;;;12.18;5.40;;;;;;;;;;10475726;28;20036;-83
2023/10/01 10:37:55;;;;;;;15.63;5.18;;;;;;;;;;10486063;28;20044;-85
2023/10/01 10:43:00;;;;;;;13.32;5.85;;;;;;;;;;10464049;28;20078;-83
2023/10/01 10:48:02;;;;;;;8.50;4.53;;;;;;;;;;10483336;28;20060;-87
2023/10/01 10:53:14;;;;;;;12.80;5.32;;;;;;;;;;10482783;28;20036;-87
2023/10/01 10:58:22;;;;;;;9.85;4.65;;;;;;;;;;10474671;28;20060;-87
2023/10/01 11:03:42;;;;;;;8.73;3.75;;;;;;;;;;10475455;28;20050;-86
2023/10/01 11:08:50;;;;;;;14.35;5.25;;;;;;;;;;10481498;28;20090;-88
2023/10/01 11:14:00;;;;;;;7.80;3.70;;;;;;;;;;10460982;28;20086;-89
2023/10/01 11:19:12;;;;;;;12.10;4.47;;;;;;;;;;10468372;28;20050;-87
2023/10/01 11:24:13;;;;;;;8.98;3.80;;;;;;;;;;10458047;28;20545;-86
2023/10/01 11:29:30;;;;;;;11.35;3.55;;;;;;;;;;10468339;28;20028;-85
2023/10/01 11:34:45;;;;;;;10.43;4.05;;;;;;;;;;10477831;28;20025;-88
2023/10/01 11:39:53;;;;;;;7.93;2.97;;;;;;;;;;10474223;28;20434;-86
2023/10/01 11:44:54;;;;;;;7.28;3.10;;;;;;;;;;10482477;28;20064;-87
2023/10/01 11:50:09;;;;;;;17.00;3.90;;;;;;;;;;10483356;28;20020;-86
2023/10/01 11:55:19;;;;;;;8.32;2.70;;;;;;;;;;10463456;28;20419;-85
2023/10/01 12:05:56;;;;;;;8.15;2.58;;;;;;;;;;10435996;28;20377;-86
2023/10/01 12:11:20;;;;;;;8.70;2.80;;;;;;;;;;10458746;28;20055;-84
2023/10/01 12:16:20;;;;;;;9.18;3.08;;;;;;;;;;10478039;28;20049;-85
2023/10/01 12:21:25;;;;;;;7.53;2.75;;;;;;;;;;10467358;28;20106;-86
2023/10/01 12:31:27;;;;;;;8.48;3.17;;;;;;;;;;10470830;28;20339;-85
2023/10/01 12:41:47;;;;;;;12.60;2.83;;;;;;;;;;10484703;28;20036;-85
2023/10/01 12:46:51;;;;;;;8.30;2.65;;;;;;;;;;10466172;28;20111;-85
2023/10/01 12:51:55;;;;;;;8.00;2.83;;;;;;;;;;10478747;28;20025;-83
2023/10/01 12:57:03;;;;;;;8.02;2.65;;;;;;;;;;10488787;28;20302;-82
2023/10/01 13:02:04;;;;;;;6.28;2.63;;;;;;;;;;10483112;28;20040;-82
2023/10/01 13:07:06;;;;;;;8.05;2.60;;;;;;;;;;10490842;28;20115;-83
2023/10/01 13:12:17;;;;;;;8.10;2.63;;;;;;;;;;10487261;28;20036;-84
2023/10/01 13:17:21;;;;;;;7.72;2.60;;;;;;;;;;10488869;28;20040;-84
2023/10/01 13:22:23;;;;;;;6.60;2.67;;;;;;;;;;10491130;28;20082;-85
2023/10/01 13:27:24;;;;;;;5.30;2.60;;;;;;;;;;10490921;28;20064;-81
2023/10/01 13:32:32;;;;;;;6.22;2.85;;;;;;;;;;10471861;28;20488;-82
2023/10/01 14:09:15;;;;;;;14.85;6.07;;;;;;;;;;10489886;28;20024;-83
2023/10/01 14:14:16;;;;;;;9.20;3.80;;;;;;;;;;10471667;28;20036;-80
2023/10/01 14:19:17;;;;;;;10.45;3.00;;;;;;;;;;10489202;28;20036;-80
2023/10/01 14:24:21;;;;;;;7.40;3.15;;;;;;;;;;10488465;28;20821;-81
2023/10/01 14:29:22;;;;;;;6.10;2.00;;;;;;;;;;10488362;28;20036;-80
2023/10/01 14:34:23;;;;;;;8.48;2.85;;;;;;;;;;10469815;28;20029;-82
2023/10/01 14:39:30;;;;;;;9.15;2.58;;;;;;;;;;10488082;28;20077;-80
2023/10/01 14:44:32;;;;;;;4.88;2.58;;;;;;;;;;10487809;28;20024;-80
2023/10/01 14:49:35;;;;;;;7.70;2.80;;;;;;;;;;10487977;28;20024;-80
2023/10/01 14:54:42;;;;;;;7.13;3.08;;;;;;;;;;10487877;28;20162;-82
2023/10/01 14:59:46;;;;;;;5.82;2.63;;;;;;;;;;10487149;28;20040;-81
2023/10/01 15:04:47;;;;;;;7.50;2.42;;;;;;;;;;10487184;28;20568;-80
2023/10/01 15:09:49;;;;;;;8.07;3.40;;;;;;;;;;10486616;28;20104;-81
2023/10/01 15:14:53;;;;;;;10.60;4.53;;;;;;;;;;10486743;28;20592;-79
2023/10/01 15:19:54;;;;;;;13.10;6.28;;;;;;;;;;10460160;28;20040;-81
2023/10/01 15:24:59;;;;;;;20.30;6.88;;;;;;;;;;10486303;28;20119;-84
2023/10/01 15:30:00;;;;;;;11.73;5.23;;;;;;;;;;10486221;28;20082;-83
2023/10/01 15:35:04;;;;;;;8.50;4.03;;;;;;;;;;10486058;28;20032;-82
2023/10/01 15:40:23;;;;;;;9.10;3.80;;;;;;;;;;10467707;28;20468;-80
2023/10/01 15:45:24;;;;;;;7.85;2.90;;;;;;;;;;10486324;28;20028;-80
2023/10/01 15:50:37;;;;;;;11.50;4.15;;;;;;;;;;10484198;28;20032;-83
2023/10/01 15:55:55;;;;;;;10.60;3.60;;;;;;;;;;10483388;28;20033;-83
2023/10/01 16:00:59;;;;;;;12.52;5.38;;;;;;;;;;10479984;28;20384;-82
2023/10/01 16:06:19;;;;;;;15.32;6.47;;;;;;;;;;10475635;28;20041;-82
2023/10/01 16:11:20;;;;;;;15.05;7.13;;;;;;;;;;10471135;28;20033;-84
2023/10/01 16:16:26;;;;;;;21.17;9.90;;;;;;;;;;10472214;28;20412;-85
2023/10/01 16:21:29;;;;;;;13.80;6.68;;;;;;;;;;10462346;28;20078;-86
2023/10/01 16:26:44;;;;;;;11.73;5.50;;;;;;;;;;10486220;28;20093;-82
2023/10/01 16:31:47;;;;;;;11.57;4.72;;;;;;;;;;10477018;28;20131;-82
2023/10/01 16:36:49;;;;;;;9.07;3.97;;;;;;;;;;10493894;28;20111;-85
2023/10/01 16:41:52;;;;;;;11.35;3.60;;;;;;;;;;10493709;28;20021;-82
2023/10/01 16:46:57;;;;;;;9.68;3.92;;;;;;;;;;10492426;28;20085;-82
2023/10/01 16:51:58;;;;;;;10.95;4.55;;;;;;;;;;10492405;28;20173;-81
2023/10/01 16:56:59;;;;;;;13.25;4.53;;;;;;;;;;10499627;28;20040;-80
2023/10/01 17:02:01;;;;;;;23.40;12.93;;;;;;;;;;10491110;28;20095;-80
2023/10/01 17:07:11;;;;;;;25.05;13.20;;;;;;;;;;10502419;23;20048;-82
2023/10/01 17:12:15;;;;;;;15.98;9.38;;;;;;;;;;10499609;23;20052;-82
2023/10/01 17:17:16;;;;;;;13.80;6.43;;;;;;;;;;10481321;28;20040;-85
2023/10/01 17:22:21;;;;;;;11.00;5.38;;;;;;;;;;10490448;28;20093;-83
2023/10/01 17:27:30;;;;;;;10.20;4.00;;;;;;;;;;10471009;28;20041;-83
2023/10/01 17:32:32;;;;;;;10.27;4.47;;;;;;;;;;10490667;28;20480;-83
2023/10/01 17:37:33;;;;;;;11.02;4.38;;;;;;;;;;10472132;28;20131;-84
2023/10/01 17:42:36;;;;;;;12.68;5.05;;;;;;;;;;10488318;28;20036;-86
2023/10/01 17:47:39;;;;;;;12.27;4.70;;;;;;;;;;10486928;28;20470;-83
2023/10/01 17:52:42;;;;;;;11.63;4.70;;;;;;;;;;10486977;28;20068;-84
2023/10/01 17:57:45;;;;;;;13.48;4.95;;;;;;;;;;10494231;22;20539;-84
2023/10/01 18:02:46;;;;;;;8.48;4.32;;;;;;;;;;10496985;28;20471;-83
2023/10/01 18:08:07;;;;;;;10.65;3.92;;;;;;;;;;10482675;28;20021;-83
2023/10/01 18:13:14;;;;;;;11.25;4.45;;;;;;;;;;10483091;28;20036;-84
2023/10/01 18:18:25;;;;;;;11.98;4.40;;;;;;;;;;10480491;28;20123;-84
2023/10/01 18:23:26;;;;;;;14.52;6.07;;;;;;;;;;10485957;28;20029;-83
2023/10/01 18:28:28;;;;;;;17.83;7.28;;;;;;;;;;10475909;28;20029;-83
2023/10/01 18:33:32;;;;;;;16.88;8.55;;;;;;;;;;10489179;28;20210;-86
2023/10/01 18:38:34;;;;;;;19.92;9.05;;;;;;;;;;10484899;28;20653;-83
2023/10/01 18:43:35;;;;;;;13.50;7.65;;;;;;;;;;10467713;28;20029;-87
2023/10/01 18:48:39;;;;;;;14.27;6.93;;;;;;;;;;10483937;28;20063;-85
2023/10/01 18:53:43;;;;;;;16.10;6.38;;;;;;;;;;10479398;28;20040;-81
2023/10/01 18:58:50;;;;;;;14.98;7.85;;;;;;;;;;10469853;28;20056;-83
2023/10/01 19:03:52;;;;;;;12.88;6.38;;;;;;;;;;10484345;28;20430;-83
2023/10/01 19:08:53;;;;;;;15.73;7.32;;;;;;;;;;10483449;28;20040;-83
2023/10/01 19:13:54;;;;;;;14.32;7.63;;;;;;;;;;10483107;28;20422;-83
2023/10/01 19:18:55;;;;;;;16.55;8.60;;;;;;;;;;10488077;28;20032;-83
2023/10/01 19:23:56;;;;;;;14.70;7.45;;;;;;;;;;10479580;28;20491;-85
2023/10/01 19:28:57;;;;;;;13.32;7.65;;;;;;;;;;10468104;28;20013;-82
2023/10/01 19:33:58;;;;;;;13.40;6.53;;;;;;;;;;10485311;28;20067;-83
2023/10/01 19:38:59;;;;;;;20.30;9.45;;;;;;;;;;10485269;28;20036;-83
2023/10/01 19:44:01;;;;;;;17.80;8.82;;;;;;;;;;10480475;28;20037;-86
2023/10/01 19:49:03;;;;;;;22.38;10.93;;;;;;;;;;10485466;28;20071;-84
2023/10/01 19:54:05;;;;;;;20.33;10.77;;;;;;;;;;10480739;28;20036;-87
2023/10/01 19:59:13;;;;;;;20.75;10.43;;;;;;;;;;10467312;28;20067;-84
2023/10/01 20:04:14;;;;;;;16.88;9.48;;;;;;;;;;10462239;28;20078;-84
2023/10/01 20:09:24;;;;;;;12.25;7.07;;;;;;;;;;10477450;28;20452;-82
2023/10/01 20:14:27;;;;;;;19.13;8.85;;;;;;;;;;10484465;28;20052;-84
2023/10/01 20:19:29;;;;;;;18.52;7.53;;;;;;;;;;10484956;28;20031;-83
2023/10/01 20:24:30;;;;;;;17.02;8.57;;;;;;;;;;10479629;28;20119;-86
2023/10/01 20:29:37;;;;;;;15.43;8.18;;;;;;;;;;10483974;28;20059;-83
2023/10/01 20:34:44;;;;;;;21.13;10.75;;;;;;;;;;10485050;28;20036;-85
2023/10/01 20:39:45;;;;;;;16.20;8.82;;;;;;;;;;10484248;28;20033;-82
2023/10/01 20:44:50;;;;;;;14.52;8.07;;;;;;;;;;10485684;28;20023;-83
2023/10/01 20:49:52;;;;;;;18.95;10.95;;;;;;;;;;10484932;28;20039;-83
2023/10/01 20:54:53;;;;;;;16.65;10.20;;;;;;;;;;10484823;28;20086;-83
2023/10/01 20:59:54;;;;;;;20.70;11.90;;;;;;;;;;10483466;28;20053;-82
2023/10/01 21:04:55;;;;;;;16.73;10.90;;;;;;;;;;10484081;28;20094;-83
2023/10/01 21:09:59;;;;;;;16.50;9.23;;;;;;;;;;10479154;28;20032;-83
2023/10/01 21:15:00;;;;;;;20.83;12.18;;;;;;;;;;10486983;28;20040;-85
2023/10/01 21:20:17;;;;;;;23.20;11.25;;;;;;;;;;10491965;28;20040;-85
2023/10/01 21:25:22;;;;;;;20.33;11.55;;;;;;;;;;10472830;28;20373;-86
2023/10/01 21:30:24;;;;;;;25.13;12.82;;;;;;;;;;10491816;28;20021;-83
2023/10/01 21:35:25;;;;;;;14.38;7.15;;;;;;;;;;10491035;28;20556;-84
2023/10/01 21:40:26;;;;;;;19.20;11.73;;;;;;;;;;10491369;28;20071;-85
2023/10/01 21:45:58;;;;;;;19.35;10.43;;;;;;;;;;10492059;28;20375;-83
2023/10/01 21:51:02;;;;;;;28.52;16.40;;;;;;;;;;10478203;28;20063;-82
2023/10/01 21:56:05;;;;;;;23.30;10.80;;;;;;;;;;10487160;28;20118;-83
2023/10/01 22:06:38;;;;;;;35.65;17.58;;;;;;;;;;10489438;28;20029;-82
2023/10/01 22:11:41;;;;;;;27.88;14.55;;;;;;;;;;10491093;28;20025;-84
2023/10/01 22:16:52;;;;;;;20.17;9.85;;;;;;;;;;10490002;28;20051;-83
2023/10/01 22:21:54;;;;;;;24.98;12.65;;;;;;;;;;10488931;28;20023;-83
2023/10/01 22:26:55;;;;;;;17.20;9.40;;;;;;;;;;10489311;28;20028;-83
2023/10/01 22:32:05;;;;;;;22.77;11.98;;;;;;;;;;10483748;28;20024;-83
2023/10/01 22:37:12;;;;;;;25.88;13.73;;;;;;;;;;10488322;28;20060;-86
2023/10/01 22:42:30;;;;;;;23.60;12.90;;;;;;;;;;10488971;28;20028;-83
2023/10/01 22:47:32;;;;;;;26.33;15.25;;;;;;;;;;10487984;28;20025;-83
2023/10/01 22:52:34;;;;;;;25.85;13.98;;;;;;;;;;10487631;23;20125;-83
2023/10/01 22:57:42;;;;;;;25.65;12.95;;;;;;;;;;10488043;28;20040;-83
2023/10/01 23:02:52;;;;;;;18.83;9.90;;;;;;;;;;10488217;28;20082;-82
2023/10/01 23:08:05;;;;;;;19.90;11.63;;;;;;;;;;10487739;28;20038;-83
2023/10/01 23:13:07;;;;;;;22.83;12.07;;;;;;;;;;10468695;28;20040;-86
2023/10/01 23:18:19;;;;;;;23.23;11.65;;;;;;;;;;10467402;28;20400;-81
2023/10/01 23:23:27;;;;;;;21.23;11.43;;;;;;;;;;10485924;28;20037;-86
2023/10/01 23:28:37;;;;;;;12.98;8.43;;;;;;;;;;10486867;28;20063;-83
2023/10/01 23:33:38;;;;;;;16.38;9.88;;;;;;;;;;10486817;28;20082;-83
2023/10/01 23:38:55;;;;;;;16.40;8.10;;;;;;;;;;10485950;28;20036;-85
2023/10/01 23:43:58;;;;;;;14.13;7.20;;;;;;;;;;10486658;28;20039;-85
2023/10/01 23:49:01;;;;;;;18.40;9.95;;;;;;;;;;10496936;23;20052;-83
2023/10/01 23:54:02;;;;;;;22.90;12.60;;;;;;;;;;10480894;28;20115;-84
